createdAt,value
2016-10-11T00:00:40.414Z,0
2016-10-11T00:01:40.927Z,0
2016-10-11T00:02:40.594Z,0
2016-10-11T00:03:40.853Z,0
2016-10-11T00:04:40.514Z,0
2016-10-11T00:05:40.469Z,0
2016-10-11T00:06:40.736Z,0
2016-10-11T00:07:40.400Z,0
2016-10-11T00:08:40.356Z,0
2016-10-11T00:09:40.312Z,0
2016-10-11T00:10:40.578Z,0
2016-10-11T00:11:40.235Z,0
2016-10-11T00:12:40.200Z,0
2016-10-11T00:13:40.161Z,0
2016-10-11T00:14:39.827Z,0
2016-10-11T00:15:40.084Z,0
2016-10-11T00:16:40.367Z,0
2016-10-11T00:17:39.999Z,0
2016-10-11T00:18:39.666Z,0
2016-10-11T00:19:39.926Z,0
2016-10-11T00:20:39.899Z,0
2016-10-11T00:21:40.159Z,0
2016-10-11T00:22:40.125Z,0
2016-10-11T00:23:39.776Z,0
2016-10-11T00:24:39.125Z,0
2016-10-11T00:25:40.016Z,0
2016-10-11T00:26:39.975Z,0
2016-10-11T00:27:39.621Z,0
2016-10-11T00:28:39.585Z,0
2016-10-11T00:29:39.840Z,0
2016-10-11T00:30:38.903Z,0
2016-10-11T00:31:39.167Z,0
2016-10-11T00:32:39.132Z,0
2016-10-11T00:33:39.692Z,0
2016-10-11T00:34:39.653Z,0
2016-10-11T00:35:39.618Z,0
2016-10-11T00:36:39.287Z,0
2016-10-11T00:37:38.921Z,0
2016-10-11T00:38:39.189Z,0
2016-10-11T00:39:39.449Z,0
2016-10-11T00:40:39.109Z,0
2016-10-11T00:41:39.381Z,0
2016-10-11T00:42:39.340Z,0
2016-10-11T00:43:38.700Z,0
2016-10-11T00:44:39.257Z,0
2016-10-11T00:45:39.231Z,0
2016-10-11T00:46:38.276Z,0
2016-10-11T00:47:39.147Z,0
2016-10-11T00:48:38.498Z,0
2016-10-11T00:49:39.072Z,0
2016-10-11T00:50:38.723Z,0
2016-10-11T00:51:38.977Z,0
2016-10-11T00:52:38.962Z,0
2016-10-11T00:53:38.900Z,0
2016-10-11T00:54:38.265Z,0
2016-10-11T00:55:38.532Z,0
2016-10-11T00:56:38.186Z,0
2016-10-11T00:57:38.751Z,0
2016-10-11T00:58:38.716Z,0
2016-10-11T00:59:38.367Z,0
2016-10-11T01:00:38.335Z,0
2016-10-11T01:01:38.603Z,0
2016-10-11T01:02:38.555Z,0
2016-10-11T01:03:38.220Z,0
2016-10-11T01:04:37.578Z,0
2016-10-11T01:05:38.140Z,0
2016-10-11T01:06:38.398Z,0
2016-10-11T01:07:38.057Z,0
2016-10-11T01:08:38.319Z,0
2016-10-11T01:09:38.281Z,0
2016-10-11T01:10:38.241Z,0
2016-10-11T01:11:38.201Z,0
2016-10-11T01:12:38.181Z,0
2016-10-11T01:13:38.123Z,0
2016-10-11T01:14:38.085Z,0
2016-10-11T01:15:38.051Z,0
2016-10-11T01:16:38.003Z,0
2016-10-11T01:17:37.664Z,0
2016-10-11T01:18:37.328Z,0
2016-10-11T01:19:37.888Z,0
2016-10-11T01:20:37.845Z,0
2016-10-11T01:21:37.213Z,0
2016-10-11T01:22:37.771Z,0
2016-10-11T01:23:37.429Z,0
2016-10-11T01:24:37.696Z,0
2016-10-11T01:25:37.365Z,0
2016-10-11T01:26:36.714Z,0
2016-10-11T01:27:37.271Z,0
2016-10-11T01:28:37.543Z,0
2016-10-11T01:29:37.190Z,0
2016-10-11T01:30:37.159Z,0
2016-10-11T01:31:37.107Z,0
2016-10-11T01:32:37.069Z,0
2016-10-11T01:33:37.041Z,0
2016-10-11T01:34:36.394Z,0
2016-10-11T01:35:36.960Z,0
2016-10-11T01:36:37.230Z,0
2016-10-11T01:37:37.183Z,0
2016-10-11T01:38:37.143Z,0
2016-10-11T01:39:36.801Z,0
2016-10-11T01:40:37.064Z,0
2016-10-11T01:41:36.726Z,0
2016-10-11T01:42:36.983Z,0
2016-10-11T01:43:36.944Z,0
2016-10-11T01:44:36.930Z,0
2016-10-11T01:45:36.871Z,0
2016-10-11T01:46:36.835Z,0
2016-10-11T01:47:36.792Z,0
2016-10-11T01:48:36.445Z,0
2016-10-11T01:49:36.708Z,0
2016-10-11T01:50:36.684Z,0
2016-10-11T01:51:36.631Z,0
2016-10-11T01:52:36.590Z,0
2016-10-11T01:53:36.564Z,0
2016-10-11T01:54:36.222Z,0
2016-10-11T01:55:36.174Z,0
2016-10-11T01:56:36.138Z,0
2016-10-11T01:57:36.398Z,0
2016-10-11T01:58:35.449Z,0
2016-10-11T01:59:36.319Z,0
2016-10-11T02:00:36.278Z,0
2016-10-11T02:01:36.251Z,0
2016-10-11T02:02:36.203Z,0
2016-10-11T02:03:36.163Z,0
2016-10-11T02:04:35.832Z,0
2016-10-11T02:05:36.082Z,0
2016-10-11T02:06:35.747Z,0
2016-10-11T02:07:35.702Z,0
2016-10-11T02:08:35.965Z,0
2016-10-11T02:09:35.644Z,0
2016-10-11T02:10:35.579Z,0
2016-10-11T02:11:35.564Z,0
2016-10-11T02:12:35.507Z,0
2016-10-11T02:13:35.161Z,0
2016-10-11T02:14:35.431Z,0
2016-10-11T02:15:35.386Z,0
2016-10-11T02:16:35.353Z,0
2016-10-11T02:17:35.622Z,0
2016-10-11T02:18:35.577Z,0
2016-10-11T02:19:35.537Z,0
2016-10-11T02:20:35.491Z,0
2016-10-11T02:21:35.155Z,0
2016-10-11T02:22:35.112Z,0
2016-10-11T02:23:34.773Z,0
2016-10-11T02:24:34.749Z,0
2016-10-11T02:25:35.316Z,0
2016-10-11T02:26:35.266Z,0
2016-10-11T02:27:35.220Z,0
2016-10-11T02:28:34.876Z,0
2016-10-11T02:29:34.837Z,0
2016-10-11T02:30:34.794Z,0
2016-10-11T02:31:35.065Z,0
2016-10-11T02:32:34.418Z,0
2016-10-11T02:33:34.384Z,0
2016-10-11T02:34:34.948Z,0
2016-10-11T02:35:34.901Z,0
2016-10-11T02:36:34.564Z,0
2016-10-11T02:37:34.524Z,0
2016-10-11T02:38:34.484Z,0
2016-10-11T02:39:34.441Z,0
2016-10-11T02:40:34.412Z,0
2016-10-11T02:41:34.668Z,0
2016-10-11T02:42:34.326Z,0
2016-10-11T02:43:33.982Z,0
2016-10-11T02:44:34.548Z,0
2016-10-11T02:45:33.302Z,0
2016-10-11T02:46:34.472Z,0
2016-10-11T02:47:34.432Z,0
2016-10-11T02:48:34.089Z,0
2016-10-11T02:49:34.353Z,0
2016-10-11T02:50:34.335Z,0
2016-10-11T02:51:33.976Z,0
2016-10-11T02:52:34.235Z,0
2016-10-11T02:53:34.201Z,0
2016-10-11T02:54:33.856Z,0
2016-10-11T02:55:34.113Z,0
2016-10-11T02:56:33.772Z,0
2016-10-11T02:57:33.746Z,0
2016-10-11T02:58:34.001Z,0
2016-10-11T02:59:33.966Z,0
2016-10-11T03:00:33.922Z,0
2016-10-11T03:01:33.582Z,0
2016-10-11T03:02:33.840Z,0
2016-10-11T03:03:33.798Z,0
2016-10-11T03:04:33.463Z,0
2016-10-11T03:05:33.726Z,0
2016-10-11T03:06:33.691Z,0
2016-10-11T03:07:33.343Z,0
2016-10-11T03:08:33.607Z,0
2016-10-11T03:09:33.569Z,0
2016-10-11T03:10:33.532Z,0
2016-10-11T03:11:33.184Z,0
2016-10-11T03:12:33.449Z,0
2016-10-11T03:13:33.414Z,0
2016-10-11T03:14:33.375Z,0
2016-10-11T03:15:33.037Z,0
2016-10-11T03:16:33.293Z,0
2016-10-11T03:17:33.251Z,0
2016-10-11T03:18:32.905Z,0
2016-10-11T03:19:32.875Z,0
2016-10-11T03:20:32.836Z,0
2016-10-11T03:21:32.796Z,0
2016-10-11T03:22:33.064Z,0
2016-10-11T03:23:32.425Z,0
2016-10-11T03:24:32.982Z,0
2016-10-11T03:25:32.933Z,0
2016-10-11T03:26:32.595Z,0
2016-10-11T03:27:32.861Z,0
2016-10-11T03:28:32.527Z,0
2016-10-11T03:29:32.776Z,0
2016-10-11T03:30:32.749Z,0
2016-10-11T03:31:32.412Z,0
2016-10-11T03:32:32.668Z,0
2016-10-11T03:33:32.623Z,0
2016-10-11T03:34:31.986Z,0
2016-10-11T03:35:32.555Z,0
2016-10-11T03:36:32.203Z,0
2016-10-11T03:37:32.495Z,0
2016-10-11T03:38:31.827Z,0
2016-10-11T03:39:32.400Z,0
2016-10-11T03:40:32.051Z,0
2016-10-11T03:41:32.313Z,0
2016-10-11T03:42:32.282Z,0
2016-10-11T03:43:32.229Z,0
2016-10-11T03:44:31.318Z,0
2016-10-11T03:45:32.156Z,0
2016-10-11T03:46:31.811Z,0
2016-10-11T03:47:32.085Z,0
2016-10-11T03:48:32.043Z,0
2016-10-11T03:49:32.011Z,0
2016-10-11T03:50:31.349Z,0
2016-10-11T03:51:31.919Z,0
2016-10-11T03:52:31.876Z,0
2016-10-11T03:53:31.840Z,0
2016-10-11T03:54:31.816Z,0
2016-10-11T03:55:31.763Z,0
2016-10-11T03:56:31.724Z,0
2016-10-11T03:57:31.683Z,0
2016-10-11T03:58:31.645Z,0
2016-10-11T03:59:31.299Z,0
2016-10-11T04:00:31.267Z,0
2016-10-11T04:01:31.530Z,0
2016-10-11T04:02:31.497Z,0
2016-10-11T04:03:31.452Z,0
2016-10-11T04:04:31.410Z,0
2016-10-11T04:05:31.370Z,0
2016-10-11T04:06:31.326Z,0
2016-10-11T04:07:30.992Z,0
2016-10-11T04:08:30.952Z,0
2016-10-11T04:09:31.215Z,0
2016-10-11T04:10:30.867Z,0
2016-10-11T04:11:30.844Z,0
2016-10-11T04:12:31.096Z,0
2016-10-11T04:13:30.772Z,0
2016-10-11T04:14:31.016Z,0
2016-10-11T04:15:30.979Z,0
2016-10-11T04:16:30.635Z,0
2016-10-11T04:17:30.600Z,0
2016-10-11T04:18:30.568Z,0
2016-10-11T04:19:30.828Z,0
2016-10-11T04:20:30.795Z,0
2016-10-11T04:21:30.139Z,0
2016-10-11T04:22:30.695Z,0
2016-10-11T04:23:30.661Z,0
2016-10-11T04:24:30.316Z,0
2016-10-11T04:25:30.588Z,0
2016-10-11T04:26:30.260Z,0
2016-10-11T04:27:30.206Z,0
2016-10-11T04:28:30.164Z,0
2016-10-11T04:29:30.128Z,0
2016-10-11T04:30:30.395Z,0
2016-10-11T04:31:30.054Z,0
2016-10-11T04:32:29.706Z,0
2016-10-11T04:33:29.667Z,0
2016-10-11T04:34:30.232Z,0
2016-10-11T04:35:29.885Z,0
2016-10-11T04:36:30.145Z,0
2016-10-11T04:37:29.810Z,0
2016-10-11T04:38:29.776Z,0
2016-10-11T04:39:30.035Z,0
2016-10-11T04:40:29.391Z,0
2016-10-11T04:41:29.955Z,0
2016-10-11T04:42:29.613Z,0
2016-10-11T04:43:29.571Z,0
2016-10-11T04:44:29.529Z,0
2016-10-11T04:45:29.810Z,0
2016-10-11T04:46:29.758Z,0
2016-10-11T04:47:29.715Z,0
2016-10-11T04:48:29.073Z,0
2016-10-11T04:49:29.641Z,0
2016-10-11T04:50:29.597Z,0
2016-10-11T04:51:29.255Z,0
2016-10-11T04:52:29.231Z,0
2016-10-11T04:53:28.904Z,0
2016-10-11T04:54:28.828Z,0
2016-10-11T04:55:29.415Z,0
2016-10-11T04:56:29.059Z,0
2016-10-11T04:57:29.032Z,0
2016-10-11T04:58:29.289Z,0
2016-10-11T04:59:29.242Z,0
2016-10-11T05:00:28.906Z,0
2016-10-11T05:01:29.174Z,0
2016-10-11T05:02:29.131Z,0
2016-10-11T05:03:29.083Z,0
2016-10-11T05:04:28.744Z,0
2016-10-11T05:05:29.009Z,0
2016-10-11T05:06:28.969Z,0
2016-10-11T05:07:28.928Z,0
2016-10-11T05:08:28.890Z,0
2016-10-11T05:09:28.848Z,0
2016-10-11T05:10:28.505Z,0
2016-10-11T05:11:28.770Z,0
2016-10-11T05:12:28.433Z,0
2016-10-11T05:13:28.690Z,0
2016-10-11T05:14:28.060Z,0
2016-10-11T05:15:28.622Z,0
2016-10-11T05:16:28.572Z,0
2016-10-11T05:17:28.532Z,0
2016-10-11T05:18:28.198Z,0
2016-10-11T05:19:27.857Z,0
2016-10-11T05:20:27.828Z,0
2016-10-11T05:21:28.079Z,0
2016-10-11T05:22:28.333Z,0
2016-10-11T05:23:28.300Z,0
2016-10-11T05:24:28.262Z,0
2016-10-11T05:25:28.215Z,0
2016-10-11T05:26:27.877Z,0
2016-10-11T05:27:28.139Z,0
2016-10-11T05:28:28.100Z,0
2016-10-11T05:29:27.751Z,0
2016-10-11T05:30:27.723Z,0
2016-10-11T05:31:27.681Z,0
2016-10-11T05:32:27.634Z,0
2016-10-11T05:33:27.592Z,0
2016-10-11T05:34:27.865Z,0
2016-10-11T05:35:27.532Z,0
2016-10-11T05:36:27.478Z,0
2016-10-11T05:37:27.742Z,5
2016-10-11T05:38:27.703Z,5
2016-10-11T05:39:27.362Z,5
2016-10-11T05:40:27.311Z,5
2016-10-11T05:41:27.592Z,5
2016-10-11T05:42:27.545Z,5
2016-10-11T05:43:27.505Z,5
2016-10-11T05:44:27.159Z,5
2016-10-11T05:45:27.125Z,10
2016-10-11T05:46:27.385Z,10
2016-10-11T05:47:27.338Z,10
2016-10-11T05:48:27.002Z,10
2016-10-11T05:49:27.286Z,10
2016-10-11T05:50:27.228Z,15
2016-10-11T05:51:26.884Z,15
2016-10-11T05:52:26.843Z,15
2016-10-11T05:53:27.109Z,15
2016-10-11T05:54:26.767Z,15
2016-10-11T05:55:27.034Z,20
2016-10-11T05:56:26.990Z,20
2016-10-11T05:57:26.650Z,20
2016-10-11T05:58:26.609Z,20
2016-10-11T05:59:26.870Z,20
2016-10-11T06:00:26.838Z,25
2016-10-11T06:01:26.786Z,25
2016-10-11T06:02:26.448Z,25
2016-10-11T06:03:26.422Z,25
2016-10-11T06:04:26.370Z,30
2016-10-11T06:05:26.329Z,30
2016-10-11T06:06:26.293Z,30
2016-10-11T06:07:26.553Z,30
2016-10-11T06:08:26.516Z,35
2016-10-11T06:09:26.177Z,35
2016-10-11T06:10:26.155Z,35
2016-10-11T06:11:26.406Z,35
2016-10-11T06:12:26.364Z,40
2016-10-11T06:13:26.323Z,40
2016-10-11T06:14:26.302Z,40
2016-10-11T06:15:25.937Z,40
2016-10-11T06:16:25.896Z,45
2016-10-11T06:17:26.161Z,45
2016-10-11T06:18:26.129Z,45
2016-10-11T06:19:25.796Z,45
2016-10-11T06:20:26.046Z,45
2016-10-11T06:21:26.003Z,45
2016-10-11T06:22:25.357Z,50
2016-10-11T06:23:25.615Z,50
2016-10-11T06:24:25.883Z,55
2016-10-11T06:25:25.572Z,55
2016-10-11T06:26:25.806Z,60
2016-10-11T06:27:25.768Z,60
2016-10-11T06:28:25.733Z,65
2016-10-11T06:29:25.378Z,65
2016-10-11T06:30:25.644Z,70
2016-10-11T06:31:25.000Z,70
2016-10-11T06:32:25.562Z,75
2016-10-11T06:33:25.530Z,80
2016-10-11T06:34:24.884Z,80
2016-10-11T06:35:25.145Z,85
2016-10-11T06:36:25.404Z,85
2016-10-11T06:37:25.369Z,90
2016-10-11T06:38:25.324Z,95
2016-10-11T06:39:24.992Z,100
2016-10-11T06:40:25.262Z,100
2016-10-11T06:41:24.609Z,105
2016-10-11T06:42:24.568Z,110
2016-10-11T06:43:24.828Z,115
2016-10-11T06:44:25.096Z,120
2016-10-11T06:45:25.049Z,125
2016-10-11T06:46:24.710Z,125
2016-10-11T06:47:24.675Z,130
2016-10-11T06:48:24.635Z,135
2016-10-11T06:49:24.616Z,140
2016-10-11T06:50:24.857Z,145
2016-10-11T06:51:24.824Z,150
2016-10-11T06:52:24.171Z,150
2016-10-11T06:53:24.441Z,150
2016-10-11T06:54:24.709Z,155
2016-10-11T06:55:24.662Z,155
2016-10-11T06:56:24.624Z,155
2016-10-11T06:57:24.584Z,155
2016-10-11T06:58:24.558Z,160
2016-10-11T06:59:24.507Z,160
2016-10-11T07:00:24.169Z,160
2016-10-11T07:01:23.827Z,160
2016-10-11T07:02:24.091Z,160
2016-10-11T07:03:24.361Z,155
2016-10-11T07:04:24.015Z,155
2016-10-11T07:05:24.276Z,155
2016-10-11T07:06:24.236Z,155
2016-10-11T07:07:23.900Z,155
2016-10-11T07:08:23.552Z,155
2016-10-11T07:09:24.120Z,155
2016-10-11T07:10:24.088Z,155
2016-10-11T07:11:23.749Z,155
2016-10-11T07:12:23.710Z,155
2016-10-11T07:13:23.969Z,160
2016-10-11T07:14:23.631Z,160
2016-10-11T07:15:23.889Z,160
2016-10-11T07:16:23.865Z,165
2016-10-11T07:17:23.812Z,165
2016-10-11T07:18:23.788Z,170
2016-10-11T07:19:23.148Z,170
2016-10-11T07:20:23.096Z,175
2016-10-11T07:21:23.666Z,180
2016-10-11T07:22:23.021Z,185
2016-10-11T07:23:23.605Z,190
2016-10-11T07:24:23.552Z,195
2016-10-11T07:25:23.206Z,200
2016-10-11T07:26:23.479Z,200
2016-10-11T07:27:23.123Z,205
2016-10-11T07:28:23.095Z,210
2016-10-11T07:29:23.052Z,210
2016-10-11T07:30:23.317Z,215
2016-10-11T07:31:23.273Z,220
2016-10-11T07:32:22.937Z,225
2016-10-11T07:33:22.902Z,225
2016-10-11T07:34:23.167Z,235
2016-10-11T07:35:22.833Z,240
2016-10-11T07:36:23.096Z,250
2016-10-11T07:37:22.756Z,250
2016-10-11T07:38:22.719Z,265
2016-10-11T07:39:22.067Z,265
2016-10-11T07:40:22.657Z,270
2016-10-11T07:41:22.913Z,270
2016-10-11T07:42:22.866Z,270
2016-10-11T07:43:22.827Z,270
2016-10-11T07:44:22.800Z,275
2016-10-11T07:45:22.748Z,280
2016-10-11T07:46:22.716Z,290
2016-10-11T07:47:22.067Z,290
2016-10-11T07:48:22.642Z,300
2016-10-11T07:49:22.604Z,315
2016-10-11T07:50:22.566Z,325
2016-10-11T07:51:22.544Z,335
2016-10-11T07:52:22.185Z,345
2016-10-11T07:53:22.450Z,365
2016-10-11T07:54:22.424Z,375
2016-10-11T07:55:22.072Z,390
2016-10-11T07:56:22.048Z,400
2016-10-11T07:57:22.002Z,420
2016-10-11T07:58:22.271Z,430
2016-10-11T07:59:22.229Z,455
2016-10-11T08:00:22.197Z,475
2016-10-11T08:01:21.846Z,495
2016-10-11T08:02:21.510Z,515
2016-10-11T08:03:22.087Z,515
2016-10-11T08:04:22.050Z,530
2016-10-11T08:05:22.008Z,545
2016-10-11T08:06:21.660Z,575
2016-10-11T08:07:21.639Z,580
2016-10-11T08:08:21.600Z,615
2016-10-11T08:09:21.865Z,665
2016-10-11T08:10:21.838Z,685
2016-10-11T08:11:21.787Z,790
2016-10-11T08:12:21.777Z,740
2016-10-11T08:13:21.723Z,780
2016-10-11T08:14:21.383Z,800
2016-10-11T08:15:21.640Z,865
2016-10-11T08:16:21.621Z,810
2016-10-11T08:17:21.273Z,795
2016-10-11T08:18:21.545Z,900
2016-10-11T08:19:20.911Z,760
2016-10-11T08:20:21.172Z,735
2016-10-11T08:21:21.446Z,725
2016-10-11T08:22:21.409Z,725
2016-10-11T08:23:21.076Z,735
2016-10-11T08:24:21.036Z,740
2016-10-11T08:25:21.310Z,775
2016-10-11T08:26:20.970Z,815
2016-10-11T08:27:21.242Z,930
2016-10-11T08:28:21.209Z,805
2016-10-11T08:29:21.172Z,770
2016-10-11T08:30:21.145Z,800
2016-10-11T08:31:20.804Z,755
2016-10-11T08:32:20.771Z,720
2016-10-11T08:33:20.436Z,740
2016-10-11T08:34:20.710Z,745
2016-10-11T08:35:20.977Z,795
2016-10-11T08:36:20.945Z,845
2016-10-11T08:37:20.912Z,1020
2016-10-11T08:38:20.878Z,835
2016-10-11T08:39:20.542Z,1335
2016-10-11T08:40:20.819Z,1600
2016-10-11T08:41:20.173Z,1475
2016-10-11T08:42:20.743Z,1410
2016-10-11T08:43:20.422Z,1250
2016-10-11T08:44:20.380Z,1245
2016-10-11T08:45:20.342Z,1235
2016-10-11T08:46:20.622Z,1325
2016-10-11T08:47:20.590Z,1670
2016-10-11T08:48:20.560Z,885
2016-10-11T08:49:20.529Z,865
2016-10-11T08:50:20.196Z,1220
2016-10-11T08:51:19.861Z,985
2016-10-11T08:52:20.131Z,910
2016-10-11T08:53:20.410Z,880
2016-10-11T08:54:20.374Z,1040
2016-10-11T08:55:20.347Z,1170
2016-10-11T08:56:20.318Z,975
2016-10-11T08:57:19.680Z,920
2016-10-11T08:58:19.954Z,885
2016-10-11T08:59:20.225Z,855
2016-10-11T09:00:20.205Z,780
2016-10-11T09:01:19.864Z,795
2016-10-11T09:02:19.848Z,750
2016-10-11T09:03:20.108Z,880
2016-10-11T09:04:20.075Z,690
2016-10-11T09:05:19.738Z,710
2016-10-11T09:06:19.731Z,705
2016-10-11T09:07:19.398Z,760
2016-10-11T09:08:19.952Z,840
2016-10-11T09:09:19.939Z,940
2016-10-11T09:10:19.893Z,870
2016-10-11T09:11:19.873Z,1160
2016-10-11T09:12:19.834Z,1040
2016-10-11T09:13:19.856Z,785
2016-10-11T09:14:19.774Z,1960
2016-10-11T09:15:19.732Z,1850
2016-10-11T09:16:19.714Z,1875
2016-10-11T09:17:19.675Z,1360
2016-10-11T09:18:19.341Z,1740
2016-10-11T09:19:19.320Z,1545
2016-10-11T09:20:19.285Z,1180
2016-10-11T09:21:19.253Z,845
2016-10-11T09:22:19.527Z,735
2016-10-11T09:23:19.507Z,740
2016-10-11T09:24:19.173Z,775
2016-10-11T09:25:19.436Z,830
2016-10-11T09:26:19.419Z,750
2016-10-11T09:27:19.386Z,965
2016-10-11T09:28:18.748Z,1240
2016-10-11T09:29:19.016Z,945
2016-10-11T09:30:18.997Z,1045
2016-10-11T09:31:19.265Z,895
2016-10-11T09:32:19.237Z,1025
2016-10-11T09:33:18.907Z,1030
2016-10-11T09:34:19.180Z,955
2016-10-11T09:35:19.172Z,960
2016-10-11T09:36:19.119Z,855
2016-10-11T09:37:19.095Z,995
2016-10-11T09:38:19.058Z,920
2016-10-11T09:39:19.048Z,800
2016-10-11T09:40:18.701Z,740
2016-10-11T09:41:18.975Z,705
2016-10-11T09:42:18.645Z,700
2016-10-11T09:43:18.608Z,705
2016-10-11T09:44:18.581Z,720
2016-10-11T09:45:18.552Z,690
2016-10-11T09:46:18.836Z,685
2016-10-11T09:47:18.793Z,665
2016-10-11T09:48:18.766Z,670
2016-10-11T09:49:18.741Z,735
2016-10-11T09:50:18.417Z,665
2016-10-11T09:51:18.078Z,670
2016-10-11T09:52:18.342Z,690
2016-10-11T09:53:18.327Z,640
2016-10-11T09:54:18.601Z,640
2016-10-11T09:55:17.964Z,615
2016-10-11T09:56:18.536Z,610
2016-10-11T09:57:18.191Z,600
2016-10-11T09:58:18.468Z,615
2016-10-11T09:59:18.428Z,665
2016-10-11T10:00:18.107Z,655
2016-10-11T10:01:18.364Z,665
2016-10-11T10:02:18.340Z,675
2016-10-11T10:03:18.309Z,675
2016-10-11T10:04:18.270Z,665
2016-10-11T10:05:17.943Z,715
2016-10-11T10:06:17.609Z,760
2016-10-11T10:07:18.190Z,805
2016-10-11T10:08:18.147Z,800
2016-10-11T10:09:18.115Z,720
2016-10-11T10:10:17.774Z,655
2016-10-11T10:11:18.057Z,640
2016-10-11T10:12:18.027Z,645
2016-10-11T10:13:17.993Z,640
2016-10-11T10:14:17.655Z,640
2016-10-11T10:15:17.923Z,650
2016-10-11T10:16:17.883Z,675
2016-10-11T10:17:17.551Z,705
2016-10-11T10:18:17.828Z,735
2016-10-11T10:19:17.489Z,810
2016-10-11T10:20:16.855Z,1040
2016-10-11T10:21:17.724Z,890
2016-10-11T10:22:17.704Z,815
2016-10-11T10:23:17.355Z,840
2016-10-11T10:24:17.331Z,1225
2016-10-11T10:25:17.296Z,965
2016-10-11T10:26:17.569Z,1105
2016-10-11T10:27:17.529Z,1105
2016-10-11T10:28:17.507Z,890
2016-10-11T10:29:17.478Z,920
2016-10-11T10:30:16.528Z,800
2016-10-11T10:31:17.098Z,995
2016-10-11T10:32:17.086Z,765
2016-10-11T10:33:17.043Z,750
2016-10-11T10:34:17.010Z,705
2016-10-11T10:35:17.286Z,670
2016-10-11T10:36:17.246Z,525
2016-10-11T10:37:16.619Z,860
2016-10-11T10:38:16.885Z,530
2016-10-11T10:39:16.854Z,470
2016-10-11T10:40:17.130Z,585
2016-10-11T10:41:16.791Z,800
2016-10-11T10:42:16.158Z,740
2016-10-11T10:43:16.723Z,825
2016-10-11T10:44:16.391Z,690
2016-10-11T10:45:16.968Z,715
2016-10-11T10:46:16.640Z,805
2016-10-11T10:47:16.907Z,775
2016-10-11T10:48:16.869Z,895
2016-10-11T10:49:16.541Z,540
2016-10-11T10:50:16.506Z,335
2016-10-11T10:51:16.774Z,1030
2016-10-11T10:52:16.453Z,1585
2016-10-11T10:53:16.716Z,2170
2016-10-11T10:54:16.390Z,1145
2016-10-11T10:55:16.361Z,2040
2016-10-11T10:56:16.367Z,335
2016-10-11T10:57:16.607Z,280
2016-10-11T10:58:16.581Z,310
2016-10-11T10:59:16.548Z,2140
2016-10-11T11:00:16.533Z,2150
2016-10-11T11:01:15.890Z,2100
2016-10-11T11:02:16.152Z,1870
2016-10-11T11:03:16.119Z,1415
2016-10-11T11:04:16.391Z,745
2016-10-11T11:05:16.058Z,590
2016-10-11T11:06:16.029Z,565
2016-10-11T11:07:15.993Z,555
2016-10-11T11:08:15.971Z,540
2016-10-11T11:09:16.273Z,530
2016-10-11T11:10:16.223Z,525
2016-10-11T11:11:15.892Z,515
2016-10-11T11:12:15.854Z,505
2016-10-11T11:13:15.522Z,495
2016-10-11T11:14:15.786Z,330
2016-10-11T11:15:16.061Z,465
2016-10-11T11:16:16.032Z,465
2016-10-11T11:17:16.003Z,505
2016-10-11T11:18:15.368Z,785
2016-10-11T11:19:15.940Z,1490
2016-10-11T11:20:15.916Z,260
2016-10-11T11:21:15.584Z,260
2016-10-11T11:22:15.854Z,400
2016-10-11T11:23:15.815Z,390
2016-10-11T11:24:15.483Z,385
2016-10-11T11:25:14.847Z,380
2016-10-11T11:26:15.729Z,380
2016-10-11T11:27:15.690Z,365
2016-10-11T11:28:15.662Z,260
2016-10-11T11:29:15.330Z,345
2016-10-11T11:30:15.595Z,350
2016-10-11T11:31:15.572Z,345
2016-10-11T11:32:15.537Z,340
2016-10-11T11:33:15.206Z,330
2016-10-11T11:34:15.470Z,325
2016-10-11T11:35:15.439Z,315
2016-10-11T11:36:15.100Z,300
2016-10-11T11:37:15.065Z,285
2016-10-11T11:38:15.335Z,290
2016-10-11T11:39:15.302Z,290
2016-10-11T11:40:14.974Z,285
2016-10-11T11:41:15.237Z,285
2016-10-11T11:42:15.217Z,275
2016-10-11T11:43:15.177Z,260
2016-10-11T11:44:14.840Z,245
2016-10-11T11:45:14.804Z,245
2016-10-11T11:46:14.767Z,240
2016-10-11T11:47:14.745Z,235
2016-10-11T11:48:14.402Z,235
2016-10-11T11:49:14.367Z,240
2016-10-11T11:50:14.637Z,240
2016-10-11T11:51:14.594Z,235
2016-10-11T11:52:14.886Z,240
2016-10-11T11:53:14.891Z,240
2016-10-11T11:54:14.806Z,245
2016-10-11T11:55:14.783Z,250
2016-10-11T11:56:14.725Z,265
2016-10-11T11:57:14.708Z,275
2016-10-11T11:58:14.358Z,280
2016-10-11T11:59:14.332Z,295
2016-10-11T12:00:14.300Z,315
2016-10-11T12:01:14.557Z,315
2016-10-11T12:02:14.224Z,280
2016-10-11T12:03:14.499Z,240
2016-10-11T12:04:14.161Z,225
2016-10-11T12:05:13.821Z,210
2016-10-11T12:06:14.398Z,215
2016-10-11T12:07:14.353Z,220
2016-10-11T12:08:14.022Z,250
2016-10-11T12:09:13.984Z,260
2016-10-11T12:10:14.254Z,265
2016-10-11T12:11:13.911Z,255
2016-10-11T12:12:13.575Z,240
2016-10-11T12:13:14.144Z,210
2016-10-11T12:14:13.515Z,215
2016-10-11T12:15:14.083Z,215
2016-10-11T12:16:14.049Z,225
2016-10-11T12:17:13.403Z,220
2016-10-11T12:18:13.979Z,220
2016-10-11T12:19:13.933Z,215
2016-10-11T12:20:13.294Z,215
2016-10-11T12:21:13.873Z,215
2016-10-11T12:22:13.830Z,220
2016-10-11T12:23:13.502Z,220
2016-10-11T12:24:13.760Z,230
2016-10-11T12:25:13.128Z,235
2016-10-11T12:26:13.688Z,245
2016-10-11T12:27:13.657Z,250
2016-10-11T12:28:13.626Z,260
2016-10-11T12:29:13.591Z,265
2016-10-11T12:30:13.553Z,280
2016-10-11T12:31:13.227Z,305
2016-10-11T12:32:13.184Z,325
2016-10-11T12:33:13.444Z,340
2016-10-11T12:34:13.419Z,350
2016-10-11T12:35:13.380Z,350
2016-10-11T12:36:13.345Z,345
2016-10-11T12:37:13.009Z,325
2016-10-11T12:38:13.271Z,290
2016-10-11T12:39:12.936Z,265
2016-10-11T12:40:12.905Z,250
2016-10-11T12:41:13.178Z,230
2016-10-11T12:42:13.153Z,225
2016-10-11T12:43:13.110Z,225
2016-10-11T12:44:13.068Z,220
2016-10-11T12:45:12.454Z,220
2016-10-11T12:46:12.708Z,220
2016-10-11T12:47:12.667Z,220
2016-10-11T12:48:12.630Z,220
2016-10-11T12:49:12.599Z,225
2016-10-11T12:50:12.559Z,235
2016-10-11T12:51:12.833Z,245
2016-10-11T12:52:12.793Z,255
2016-10-11T12:53:12.760Z,255
2016-10-11T12:54:12.731Z,260
2016-10-11T12:55:12.703Z,270
2016-10-11T12:56:12.650Z,280
2016-10-11T12:57:12.623Z,285
2016-10-11T12:58:12.294Z,280
2016-10-11T12:59:12.547Z,290
2016-10-11T13:00:11.915Z,290
2016-10-11T13:01:12.179Z,295
2016-10-11T13:02:11.835Z,290
2016-10-11T13:03:12.228Z,290
2016-10-11T13:04:12.072Z,265
2016-10-11T13:05:12.349Z,250
2016-10-11T13:06:12.308Z,250
2016-10-11T13:07:11.973Z,250
2016-10-11T13:08:11.950Z,240
2016-10-11T13:09:12.206Z,240
2016-10-11T13:10:11.866Z,235
2016-10-11T13:11:11.854Z,240
2016-10-11T13:12:12.106Z,245
2016-10-11T13:13:11.767Z,245
2016-10-11T13:14:11.130Z,245
2016-10-11T13:15:11.697Z,245
2016-10-11T13:16:11.973Z,245
2016-10-11T13:17:11.933Z,230
2016-10-11T13:18:11.896Z,225
2016-10-11T13:19:11.857Z,215
2016-10-11T13:20:11.530Z,205
2016-10-11T13:21:11.795Z,200
2016-10-11T13:22:11.768Z,195
2016-10-11T13:23:11.733Z,195
2016-10-11T13:24:11.382Z,200
2016-10-11T13:25:11.658Z,205
2016-10-11T13:26:11.613Z,210
2016-10-11T13:27:10.972Z,220
2016-10-11T13:28:11.539Z,230
2016-10-11T13:29:11.511Z,235
2016-10-11T13:30:11.191Z,240
2016-10-11T13:31:11.140Z,245
2016-10-11T13:32:11.412Z,250
2016-10-11T13:33:10.777Z,250
2016-10-11T13:34:11.338Z,245
2016-10-11T13:35:11.294Z,240
2016-10-11T13:36:11.267Z,240
2016-10-11T13:37:10.934Z,240
2016-10-11T13:38:10.902Z,235
2016-10-11T13:39:10.867Z,230
2016-10-11T13:40:10.522Z,225
2016-10-11T13:41:11.091Z,215
2016-10-11T13:42:11.057Z,205
2016-10-11T13:43:11.021Z,200
2016-10-11T13:44:10.979Z,195
2016-10-11T13:45:10.971Z,185
2016-10-11T13:46:10.915Z,170
2016-10-11T13:47:10.885Z,160
2016-10-11T13:48:10.841Z,155
2016-10-11T13:49:10.804Z,145
2016-10-11T13:50:10.783Z,140
2016-10-11T13:51:10.179Z,135
2016-10-11T13:52:10.701Z,130
2016-10-11T13:53:10.660Z,135
2016-10-11T13:54:10.632Z,130
2016-10-11T13:55:10.288Z,125
2016-10-11T13:56:09.959Z,125
2016-10-11T13:57:10.545Z,125
2016-10-11T13:58:10.495Z,125
2016-10-11T13:59:10.149Z,130
2016-10-11T14:00:10.109Z,130
2016-10-11T14:01:10.375Z,135
2016-10-11T14:02:10.345Z,130
2016-10-11T14:03:10.308Z,135
2016-10-11T14:04:10.270Z,130
2016-10-11T14:05:09.934Z,135
2016-10-11T14:06:10.203Z,135
2016-10-11T14:07:10.165Z,135
2016-10-11T14:08:09.825Z,135
2016-10-11T14:09:09.494Z,135
2016-10-11T14:10:09.452Z,135